Time;durP1;ratioP1;P1;durP2;ratioP2;P2;SDS_P1;SDS_P2;PMS_P1;PMS_P2;Temp;Humidity;BMP_temperature;BMP_pressure;BME280_temperature;BME280_humidity;BME280_pressure;Samples;Min_cycle;Max_cycle;Signal;HPM_P1;HPM_P2
2020/12/20 00:02:20;;;;;;;11.32;5.15;;;8.80;87.90;;;;;;5088283;28;20115;-70
2020/12/20 00:04:46;;;;;;;11.38;5.07;;;8.80;87.60;;;;;;5093851;28;20036;-70
2020/12/20 00:07:11;;;;;;;9.27;4.90;;;8.80;88.00;;;;;;5093483;28;20468;-70
2020/12/20 00:09:37;;;;;;;8.82;4.72;;;8.80;87.90;;;;;;5090373;28;20084;-70
2020/12/20 00:12:03;;;;;;;15.23;5.25;;;8.80;88.30;;;;;;5087647;28;20478;-70
2020/12/20 00:14:34;;;;;;;9.77;4.68;;;8.80;88.80;;;;;;5089542;28;20032;-70
2020/12/20 00:17:05;;;;;;;9.10;4.10;;;8.80;88.70;;;;;;5091343;28;20039;-70
2020/12/20 00:19:51;;;;;;;7.90;4.75;;;8.70;88.30;;;;;;5089121;28;20399;-70
2020/12/20 00:22:17;;;;;;;21.92;5.22;;;8.80;89.00;;;;;;5088738;28;20054;-70
2020/12/20 00:24:43;;;;;;;10.32;4.85;;;8.80;88.00;;;;;;5090737;28;20044;-70
2020/12/20 00:27:12;;;;;;;10.57;4.95;;;8.70;88.10;;;;;;5091224;28;20036;-70
2020/12/20 00:29:38;;;;;;;8.82;5.40;;;8.80;88.70;;;;;;5092175;28;20047;-70
2020/12/20 00:32:06;;;;;;;10.10;4.93;;;8.80;88.70;;;;;;5091061;28;20040;-70
2020/12/20 00:34:33;;;;;;;10.15;4.72;;;8.80;89.50;;;;;;5091926;28;20040;-70
2020/12/20 00:36:59;;;;;;;10.25;5.15;;;8.70;89.60;;;;;;5090714;28;20050;-70
2020/12/20 00:39:25;;;;;;;12.40;5.03;;;8.80;89.50;;;;;;5090341;28;20048;-70
2020/12/20 00:41:56;;;;;;;8.90;4.97;;;8.70;89.00;;;;;;5091488;28;20119;-70
2020/12/20 00:44:22;;;;;;;8.32;4.90;;;8.70;89.10;;;;;;5089773;28;20089;-70
2020/12/20 00:46:49;;;;;;;10.45;4.90;;;8.70;89.30;;;;;;5088388;28;20037;-70
2020/12/20 00:49:15;;;;;;;9.23;5.10;;;8.70;89.10;;;;;;5087592;28;20040;-70
2020/12/20 00:51:41;;;;;;;9.00;4.78;;;8.60;89.50;;;;;;5091751;28;20466;-70
2020/12/20 00:54:06;;;;;;;6.97;5.07;;;8.60;88.30;;;;;;5090299;28;20044;-70
2020/12/20 00:56:53;;;;;;;9.93;5.40;;;8.60;88.60;;;;;;5090090;28;20485;-70
2020/12/20 00:59:18;;;;;;;11.48;5.15;;;8.60;88.90;;;;;;5089188;28;20482;-70
2020/12/20 01:01:44;;;;;;;15.13;5.90;;;8.60;89.90;;;;;;5090826;28;20047;-70
2020/12/20 01:04:30;;;;;;;6.78;5.03;;;8.50;89.30;;;;;;5092033;28;20036;-70
2020/12/20 01:07:15;;;;;;;14.25;5.38;;;8.50;90.00;;;;;;5087606;28;20040;-70
2020/12/20 01:09:41;;;;;;;10.90;5.05;;;8.50;89.90;;;;;;5090317;28;20039;-70
2020/12/20 01:12:06;;;;;;;6.78;4.70;;;8.50;89.90;;;;;;5089007;28;20397;-70
2020/12/20 01:14:32;;;;;;;9.48;4.95;;;8.50;89.90;;;;;;5087867;28;20081;-70
2020/12/20 01:17:00;;;;;;;12.98;5.35;;;8.50;90.30;;;;;;5090326;28;20044;-70
2020/12/20 01:19:26;;;;;;;11.85;5.72;;;8.60;90.00;;;;;;5085981;28;20048;-70
2020/12/20 01:22:12;;;;;;;14.60;5.88;;;8.50;89.40;;;;;;5089860;28;20101;-70
2020/12/20 01:24:37;;;;;;;11.05;5.35;;;8.60;90.10;;;;;;5092744;28;20044;-70
2020/12/20 01:27:03;;;;;;;7.03;4.93;;;8.50;90.10;;;;;;5091019;28;20028;-70
2020/12/20 01:29:29;;;;;;;12.30;5.25;;;8.50;90.00;;;;;;5090334;28;20040;-70
2020/12/20 01:31:54;;;;;;;10.70;5.35;;;8.60;90.10;;;;;;5088976;28;20528;-70
2020/12/20 01:34:40;;;;;;;7.80;4.87;;;8.60;90.30;;;;;;5088653;28;20046;-70
2020/12/20 01:37:26;;;;;;;12.07;6.00;;;8.60;90.20;;;;;;5086415;28;20333;-70
2020/12/20 01:40:12;;;;;;;16.77;7.40;;;8.60;89.50;;;;;;5089041;28;20406;-70
2020/12/20 01:42:38;;;;;;;8.25;5.95;;;8.60;90.30;;;;;;5093020;28;20040;-70
2020/12/20 01:45:04;;;;;;;9.15;5.78;;;8.60;90.00;;;;;;5087562;28;20046;-70
2020/12/20 01:47:50;;;;;;;;;;;8.60;90.10;;;;;;5088886;28;20044;-70
2020/12/20 01:50:35;;;;;;;11.68;6.15;;;8.60;90.20;;;;;;5086642;28;19920;-70
2020/12/20 01:53:03;;;;;;;9.90;5.68;;;8.60;90.00;;;;;;5090915;28;20036;-70
2020/12/20 01:55:30;;;;;;;8.65;7.00;;;8.60;90.10;;;;;;5089356;28;20044;-70
2020/12/20 01:57:56;;;;;;;10.77;6.70;;;8.60;90.10;;;;;;5089866;28;20044;-70
2020/12/20 02:00:22;;;;;;;13.02;5.80;;;8.60;90.10;;;;;;5088211;28;20101;-70
2020/12/20 02:02:48;;;;;;;9.30;5.65;;;8.60;90.10;;;;;;5090574;28;20051;-70
2020/12/20 02:05:14;;;;;;;7.55;5.10;;;8.60;90.30;;;;;;5090936;28;20059;-70
2020/12/20 02:07:40;;;;;;;9.20;5.93;;;8.60;90.40;;;;;;5087143;28;20062;-70
2020/12/20 02:10:25;;;;;;;7.22;5.93;;;8.60;90.40;;;;;;5091156;28;20497;-70
2020/12/20 02:12:51;;;;;;;8.20;5.90;;;8.60;90.20;;;;;;5089616;28;20036;-70
2020/12/20 02:15:17;;;;;;;6.22;5.28;;;8.60;90.40;;;;;;5085322;28;20044;-70
2020/12/20 02:17:42;;;;;;;7.20;5.47;;;8.60;90.40;;;;;;5088570;28;20168;-70
2020/12/20 02:20:08;;;;;;;11.23;6.18;;;8.60;90.40;;;;;;5085608;28;20036;-70
2020/12/20 02:22:34;;;;;;;10.43;6.25;;;8.60;90.40;;;;;;5088114;28;20131;-70
2020/12/20 02:25:00;;;;;;;11.00;6.20;;;8.60;90.30;;;;;;5088615;28;20114;-70
2020/12/20 02:27:45;;;;;;;11.60;6.28;;;8.60;90.10;;;;;;5085520;28;20039;-70
2020/12/20 02:30:31;;;;;;;9.50;5.65;;;8.60;90.40;;;;;;5083223;28;20088;-70
2020/12/20 02:32:57;;;;;;;13.50;6.07;;;8.70;90.60;;;;;;5091751;28;20052;-70
2020/12/20 02:35:22;;;;;;;8.05;6.03;;;8.70;90.40;;;;;;5086462;28;20089;-70
2020/12/20 02:37:48;;;;;;;11.05;5.97;;;8.70;90.50;;;;;;5091030;28;20484;-70
2020/12/20 02:40:14;;;;;;;13.18;5.47;;;8.80;90.40;;;;;;5087235;28;20072;-70
2020/12/20 02:42:40;;;;;;;8.02;4.78;;;8.70;90.40;;;;;;5090807;28;20036;-70
2020/12/20 02:45:05;;;;;;;9.02;5.47;;;8.70;90.20;;;;;;5088308;28;20064;-70
2020/12/20 02:47:51;;;;;;;9.45;5.85;;;8.70;90.30;;;;;;5084543;28;20063;-70
2020/12/20 02:50:17;;;;;;;8.35;4.65;;;8.70;90.20;;;;;;5086796;28;20078;-70
2020/12/20 02:52:42;;;;;;;11.30;6.80;;;8.70;90.60;;;;;;5089692;28;20090;-70
2020/12/20 02:55:28;;;;;;;8.82;6.00;;;8.80;90.50;;;;;;5086260;28;20075;-70
2020/12/20 02:57:53;;;;;;;12.20;5.25;;;8.80;90.40;;;;;;5091265;28;20105;-70
2020/12/20 03:00:20;;;;;;;8.85;5.75;;;8.70;90.40;;;;;;5088540;28;20498;-70
2020/12/20 03:02:46;;;;;;;11.40;6.22;;;8.70;90.40;;;;;;5088056;28;20032;-70
2020/12/20 03:05:13;;;;;;;6.72;4.60;;;8.70;90.40;;;;;;5088138;28;20039;-70
2020/12/20 03:07:39;;;;;;;7.88;4.95;;;8.70;90.10;;;;;;5090258;28;20036;-70
2020/12/20 03:10:05;;;;;;;10.77;5.65;;;8.80;90.30;;;;;;5089180;28;20116;-70
2020/12/20 03:12:31;;;;;;;9.32;4.97;;;8.70;90.20;;;;;;5089874;28;20040;-70
2020/12/20 03:14:57;;;;;;;7.95;5.00;;;8.70;90.20;;;;;;5087005;28;20062;-70
2020/12/20 03:17:22;;;;;;;9.43;5.43;;;8.70;90.30;;;;;;5089574;28;20490;-70
2020/12/20 03:19:48;;;;;;;7.35;5.18;;;8.70;90.30;;;;;;5091534;28;20063;-70
2020/12/20 03:22:17;;;;;;;10.20;4.78;;;8.60;90.30;;;;;;5091132;28;20051;-70
2020/12/20 03:24:43;;;;;;;9.43;5.03;;;8.70;90.40;;;;;;5093486;28;20040;-70
2020/12/20 03:27:08;;;;;;;9.73;4.47;;;8.70;90.40;;;;;;5092702;28;20118;-70
2020/12/20 03:29:34;;;;;;;10.10;4.88;;;8.70;90.40;;;;;;5089202;28;20490;-70
2020/12/20 03:32:00;;;;;;;6.47;4.15;;;8.60;90.40;;;;;;5090665;28;20043;-70
2020/12/20 03:34:25;;;;;;;7.03;4.50;;;8.60;90.40;;;;;;5093064;28;20429;-70
2020/12/20 03:36:51;;;;;;;11.95;4.78;;;8.60;90.20;;;;;;5092470;28;20032;-70
2020/12/20 03:39:37;;;;;;;8.50;4.15;;;8.60;90.30;;;;;;5092641;28;20047;-70
2020/12/20 03:42:23;;;;;;;8.57;3.90;;;8.60;90.30;;;;;;5117611;27;20504;-70
2020/12/20 03:44:48;;;;;;;10.02;4.00;;;8.60;90.80;;;;;;5095482;28;20028;-70
2020/12/20 03:47:14;;;;;;;9.68;4.20;;;8.70;90.30;;;;;;5088249;28;20039;-70
2020/12/20 03:49:39;;;;;;;7.88;4.40;;;8.60;90.40;;;;;;5092694;28;20036;-70
2020/12/20 03:52:25;;;;;;;8.15;4.63;;;8.70;90.50;;;;;;5076239;28;20044;-70
2020/12/20 03:54:51;;;;;;;9.55;4.20;;;8.60;90.40;;;;;;5091697;28;20043;-70
2020/12/20 03:57:16;;;;;;;7.40;4.28;;;8.70;90.30;;;;;;5089182;28;20032;-70
2020/12/20 03:59:42;;;;;;;8.27;4.25;;;8.70;90.40;;;;;;5088935;28;20043;-70
2020/12/20 04:02:08;;;;;;;11.38;4.22;;;8.70;90.50;;;;;;5090502;28;20059;-70
2020/12/20 04:04:33;;;;;;;10.70;4.10;;;8.70;90.50;;;;;;5092965;28;20054;-70
2020/12/20 04:06:59;;;;;;;9.23;4.82;;;8.70;90.40;;;;;;5091929;28;20040;-70
2020/12/20 04:09:45;;;;;;;10.77;5.20;;;8.70;90.30;;;;;;5088883;28;20138;-70
2020/12/20 04:12:10;;;;;;;8.48;4.38;;;8.60;90.20;;;;;;5090355;28;20140;-70
2020/12/20 04:14:36;;;;;;;10.75;4.10;;;8.70;90.30;;;;;;5091710;28;20044;-70
2020/12/20 04:17:02;;;;;;;6.80;4.18;;;8.60;90.20;;;;;;5091336;28;20043;-70
2020/12/20 04:19:27;;;;;;;9.43;4.05;;;8.60;90.40;;;;;;5086695;28;20067;-69
2020/12/20 04:21:53;;;;;;;8.80;4.38;;;8.60;90.40;;;;;;5090012;28;20027;-70
2020/12/20 04:24:19;;;;;;;12.07;4.90;;;8.60;90.60;;;;;;5091135;28;20032;-70
2020/12/20 04:26:44;;;;;;;7.40;4.25;;;8.60;90.40;;;;;;5090685;28;20036;-70
2020/12/20 04:29:30;;;;;;;11.30;4.22;;;8.60;90.40;;;;;;5091757;28;20398;-70
2020/12/20 04:31:56;;;;;;;10.07;4.00;;;8.60;90.30;;;;;;5088188;28;20051;-70
2020/12/20 04:34:22;;;;;;;9.50;4.78;;;8.60;90.40;;;;;;5092669;28;20039;-70
2020/12/20 04:36:48;;;;;;;9.60;4.65;;;8.50;90.40;;;;;;5086784;28;20093;-70
2020/12/20 04:39:13;;;;;;;9.55;4.85;;;8.50;90.40;;;;;;5088635;28;20044;-69
2020/12/20 04:41:39;;;;;;;9.60;4.47;;;8.50;90.50;;;;;;5091228;28;20085;-70
2020/12/20 04:44:05;;;;;;;9.15;4.00;;;8.50;90.50;;;;;;5087632;28;20448;-70
2020/12/20 04:46:51;;;;;;;11.43;5.18;;;8.50;90.50;;;;;;5088265;28;20498;-70
2020/12/20 04:49:38;;;;;;;13.25;4.50;;;8.50;90.50;;;;;;5086919;28;20090;-69
2020/12/20 04:52:06;;;;;;;8.20;4.32;;;8.50;90.60;;;;;;5090562;28;20075;-69
2020/12/20 04:54:32;;;;;;;8.80;4.43;;;8.40;90.50;;;;;;5088962;28;20068;-69
2020/12/20 04:56:58;;;;;;;12.48;5.30;;;8.50;90.70;;;;;;5092976;28;20044;-69
2020/12/20 04:59:24;;;;;;;12.35;6.10;;;8.50;90.60;;;;;;5093363;28;20036;-70
2020/12/20 05:01:50;;;;;;;11.90;5.50;;;8.50;90.60;;;;;;5089462;28;20034;-69
2020/12/20 05:04:16;;;;;;;10.35;4.05;;;8.40;90.50;;;;;;5092671;28;20131;-69
2020/12/20 05:06:41;;;;;;;9.00;3.85;;;8.40;90.60;;;;;;5089000;28;20079;-69
2020/12/20 05:09:27;;;;;;;6.15;4.13;;;8.50;90.80;;;;;;5088204;28;20056;-69
2020/12/20 05:11:53;;;;;;;7.25;4.07;;;8.50;90.70;;;;;;5087460;28;20044;-69
2020/12/20 05:14:33;;;;;;;9.13;4.10;;;8.50;90.80;;;;;;5088583;28;20037;-69
2020/12/20 05:17:18;;;;;;;8.27;4.55;;;8.50;90.60;;;;;;5089834;28;20040;-69
2020/12/20 05:19:44;;;;;;;7.85;4.43;;;8.50;90.70;;;;;;5090523;28;20040;-69
2020/12/20 05:22:16;;;;;;;12.60;4.85;;;8.40;90.60;;;;;;5089483;28;20059;-70
2020/12/20 05:25:17;;;;;;;10.85;4.80;;;8.40;90.60;;;;;;5074612;28;20040;-69
2020/12/20 05:28:10;;;;;;;10.93;4.75;;;8.30;90.80;;;;;;5089351;28;20071;-69
2020/12/20 05:30:44;;;;;;;12.02;4.85;;;8.30;90.80;;;;;;5091009;28;20051;-69
2020/12/20 05:33:23;;;;;;;8.70;4.38;;;8.30;90.80;;;;;;5088775;28;20448;-69
2020/12/20 05:36:00;;;;;;;9.57;5.10;;;8.30;90.70;;;;;;5088560;28;20301;-69
2020/12/20 05:38:26;;;;;;;13.07;6.05;;;8.30;90.80;;;;;;5087269;28;20043;-69
2020/12/20 05:41:12;;;;;;;10.63;4.85;;;8.20;90.90;;;;;;5089658;28;20097;-69
2020/12/20 05:43:38;;;;;;;8.77;4.50;;;8.20;90.80;;;;;;5087264;28;20044;-69
2020/12/20 05:46:27;;;;;;;11.20;4.73;;;8.30;90.90;;;;;;5088219;28;20162;-70
2020/12/20 05:49:11;;;;;;;8.63;4.43;;;8.20;90.70;;;;;;5089796;28;20278;-70
2020/12/20 05:52:11;;;;;;;11.93;4.70;;;8.20;90.80;;;;;;5088924;28;20059;-70
2020/12/20 05:54:57;;;;;;;12.82;4.80;;;8.20;91.00;;;;;;5076363;28;20408;-70
2020/12/20 05:57:24;;;;;;;8.02;4.05;;;8.20;91.00;;;;;;5088300;28;20044;-69
2020/12/20 05:59:52;;;;;;;8.20;5.30;;;8.20;90.90;;;;;;5090525;28;20036;-69
2020/12/20 06:02:39;;;;;;;13.05;4.30;;;8.20;90.90;;;;;;5089613;28;20054;-69
2020/12/20 06:05:32;;;;;;;9.40;4.90;;;8.20;91.00;;;;;;5089324;28;20131;-69
2020/12/20 06:08:03;;;;;;;10.35;4.50;;;8.20;90.90;;;;;;5091527;28;20036;-69
2020/12/20 06:10:34;;;;;;;9.30;4.85;;;8.20;91.10;;;;;;5086941;28;20040;-69
2020/12/20 06:13:04;;;;;;;7.97;4.88;;;8.20;90.80;;;;;;5088553;28;20090;-69
2020/12/20 06:15:32;;;;;;;8.30;4.65;;;8.20;90.80;;;;;;5084193;28;20076;-69
2020/12/20 06:18:03;;;;;;;9.10;4.53;;;8.20;90.90;;;;;;5089620;28;20040;-69
2020/12/20 06:20:31;;;;;;;8.20;4.93;;;8.20;90.90;;;;;;5088986;28;20389;-69
2020/12/20 06:23:18;;;;;;;11.20;4.78;;;8.20;90.90;;;;;;5090833;28;20079;-69
2020/12/20 06:26:05;;;;;;;5.43;4.85;;;8.20;91.00;;;;;;5088219;28;20566;-69
2020/12/20 06:28:32;;;;;;;12.75;4.50;;;8.20;91.10;;;;;;5091199;28;20043;-69
2020/12/20 06:30:59;;;;;;;9.63;5.20;;;8.20;90.90;;;;;;5088512;28;20040;-70
2020/12/20 06:33:34;;;;;;;9.65;4.97;;;8.20;91.20;;;;;;5091314;28;20117;-69
2020/12/20 06:36:08;;;;;;;14.68;4.50;;;8.30;91.10;;;;;;5089573;28;20033;-69
2020/12/20 06:38:33;;;;;;;11.82;4.85;;;8.30;91.10;;;;;;5088848;28;20039;-69
2020/12/20 06:41:37;;;;;;;13.63;5.35;;;8.30;91.20;;;;;;5088849;28;20130;-69
2020/12/20 06:44:13;;;;;;;7.25;4.32;;;8.30;91.10;;;;;;5085833;28;20116;-69
2020/12/20 06:46:59;;;;;;;9.88;4.15;;;8.30;91.00;;;;;;5086405;28;20045;-69
2020/12/20 06:49:35;;;;;;;8.43;5.20;;;8.30;91.20;;;;;;5090929;28;20058;-69
2020/12/20 06:52:27;;;;;;;12.77;5.95;;;8.40;91.20;;;;;;5087854;28;20048;-69
2020/12/20 06:55:01;;;;;;;13.45;4.50;;;8.40;91.10;;;;;;5093936;28;20044;-69
2020/12/20 06:57:27;;;;;;;9.20;3.80;;;8.40;91.10;;;;;;5091709;28;20393;-70
2020/12/20 07:00:13;;;;;;;6.93;4.20;;;8.40;91.20;;;;;;5089856;28;20097;-70
2020/12/20 07:02:46;;;;;;;9.77;4.80;;;8.40;91.00;;;;;;5091685;28;20051;-70
2020/12/20 07:05:32;;;;;;;7.97;4.10;;;8.40;90.90;;;;;;5092053;28;20050;-70
2020/12/20 07:08:13;;;;;;;19.35;5.88;;;8.50;91.00;;;;;;5090582;28;20198;-69
2020/12/20 07:11:00;;;;;;;9.93;4.65;;;8.50;91.10;;;;;;5091032;28;20044;-70
2020/12/20 07:13:33;;;;;;;11.63;3.97;;;8.50;90.90;;;;;;5087983;28;20037;-70
2020/12/20 07:16:05;;;;;;;11.60;3.80;;;8.50;90.80;;;;;;5082669;28;20401;-70
2020/12/20 07:18:37;;;;;;;9.40;3.50;;;8.50;91.00;;;;;;5088228;28;20044;-70
2020/12/20 07:21:03;;;;;;;9.35;4.57;;;8.50;90.80;;;;;;5090070;28;20048;-69
2020/12/20 07:23:54;;;;;;;7.43;3.78;;;8.50;91.00;;;;;;5088821;28;20472;-70
2020/12/20 07:26:20;;;;;;;7.68;3.63;;;8.50;90.90;;;;;;5091060;28;20040;-70
2020/12/20 07:28:46;;;;;;;11.02;3.95;;;8.50;90.80;;;;;;5089627;28;20036;-70
2020/12/20 07:31:18;;;;;;;10.85;4.18;;;8.50;90.90;;;;;;5091551;28;20040;-70
2020/12/20 07:33:44;;;;;;;10.25;4.43;;;8.50;90.90;;;;;;5090918;28;20036;-70
2020/12/20 07:36:10;;;;;;;14.27;4.07;;;8.50;90.80;;;;;;5089426;28;20028;-70
2020/12/20 07:38:36;;;;;;;7.82;3.97;;;8.50;90.90;;;;;;5090933;28;20040;-70
2020/12/20 07:41:24;;;;;;;11.57;3.88;;;8.60;91.00;;;;;;5084396;28;20040;-70
2020/12/20 07:43:51;;;;;;;13.93;3.95;;;8.50;90.80;;;;;;5090196;28;20034;-70
2020/12/20 07:46:18;;;;;;;9.48;3.78;;;8.60;90.90;;;;;;5087421;28;20036;-70
2020/12/20 07:48:43;;;;;;;13.98;3.38;;;8.60;90.80;;;;;;5088808;28;20028;-70
2020/12/20 07:51:10;;;;;;;9.45;3.75;;;8.60;90.80;;;;;;5086645;28;20503;-70
2020/12/20 07:53:49;;;;;;;10.10;3.88;;;8.60;90.90;;;;;;5091855;28;20047;-70
2020/12/20 07:56:23;;;;;;;10.32;3.85;;;8.60;90.80;;;;;;5088535;28;20055;-70
2020/12/20 07:58:49;;;;;;;12.27;3.75;;;8.60;90.80;;;;;;5090783;28;20036;-70
2020/12/20 08:01:15;;;;;;;11.52;4.32;;;8.60;90.70;;;;;;5081956;28;20044;-70
2020/12/20 08:04:09;;;;;;;9.30;4.18;;;8.60;90.70;;;;;;5108704;27;20059;-70
2020/12/20 08:06:54;;;;;;;15.20;4.03;;;8.60;90.70;;;;;;5080939;28;20647;-70
2020/12/20 08:09:22;;;;;;;11.40;3.70;;;8.60;90.80;;;;;;5082396;28;20047;-70
2020/12/20 08:11:49;;;;;;;11.48;4.03;;;8.50;90.70;;;;;;5086936;28;20047;-70
2020/12/20 08:14:17;;;;;;;6.95;3.60;;;8.50;90.70;;;;;;5086397;28;20044;-70
2020/12/20 08:17:03;;;;;;;13.57;3.92;;;8.50;90.80;;;;;;5085979;28;20044;-69
2020/12/20 08:19:31;;;;;;;14.52;3.85;;;8.50;90.70;;;;;;5087107;28;20115;-70
2020/12/20 08:22:14;;;;;;;12.40;4.32;;;8.50;90.70;;;;;;5085205;28;20069;-70
2020/12/20 08:25:10;;;;;;;13.68;3.90;;;8.50;90.80;;;;;;5087699;28;20032;-70
2020/12/20 08:27:36;;;;;;;;;;;8.50;90.70;;;;;;5091230;28;20055;-70
2020/12/20 08:30:08;;;;;;;10.95;4.00;;;8.60;90.90;;;;;;5085804;28;20385;-70
2020/12/20 08:32:36;;;;;;;14.27;4.13;;;8.60;90.80;;;;;;5089802;28;20032;-70
2020/12/20 08:35:17;;;;;;;10.25;3.85;;;8.60;90.80;;;;;;5086774;28;20420;-70
2020/12/20 08:37:43;;;;;;;13.73;5.15;;;8.60;90.80;;;;;;5089323;28;20512;-70
2020/12/20 08:40:13;;;;;;;10.07;3.83;;;8.60;90.70;;;;;;5090009;28;20036;-70
2020/12/20 08:43:00;;;;;;;11.82;3.83;;;8.60;90.70;;;;;;5085691;28;20040;-70
2020/12/20 08:45:28;;;;;;;9.82;3.42;;;8.70;91.00;;;;;;5089731;28;20040;-70
2020/12/20 08:48:03;;;;;;;13.77;4.57;;;8.60;90.70;;;;;;5087917;28;20433;-70
2020/12/20 08:50:31;;;;;;;8.10;3.45;;;8.70;90.70;;;;;;5087668;28;20040;-70
2020/12/20 08:53:00;;;;;;;10.25;3.70;;;8.70;91.00;;;;;;5089043;28;20077;-70
2020/12/20 08:55:46;;;;;;;14.85;3.72;;;8.70;90.80;;;;;;5089542;28;20048;-70
2020/12/20 08:58:12;;;;;;;10.18;3.72;;;8.70;90.70;;;;;;5087022;28;20535;-70
2020/12/20 09:00:37;;;;;;;10.23;4.00;;;8.70;90.70;;;;;;5082977;28;20040;-70
2020/12/20 09:03:24;;;;;;;11.52;4.38;;;8.70;90.80;;;;;;5085706;28;20131;-70
2020/12/20 09:06:13;;;;;;;7.88;4.15;;;8.70;90.70;;;;;;5087308;28;20043;-70
2020/12/20 09:08:39;;;;;;;12.82;4.32;;;8.70;90.70;;;;;;5082549;28;20055;-70
2020/12/20 09:11:05;;;;;;;8.77;3.60;;;8.80;90.70;;;;;;5086168;28;20474;-70
2020/12/20 09:13:30;;;;;;;9.75;3.78;;;8.80;90.60;;;;;;5083554;28;20047;-70
2020/12/20 09:15:56;;;;;;;12.63;4.05;;;8.80;90.80;;;;;;5080793;28;20099;-70
2020/12/20 09:18:25;;;;;;;10.25;3.85;;;8.80;90.60;;;;;;5087147;28;20047;-70
2020/12/20 09:20:51;;;;;;;8.55;4.07;;;8.80;90.60;;;;;;5088949;28;20410;-70
2020/12/20 09:23:25;;;;;;;11.15;3.80;;;8.80;90.70;;;;;;5088634;28;20530;-70
2020/12/20 09:25:59;;;;;;;11.50;3.97;;;8.80;90.60;;;;;;5088716;28;20274;-70
2020/12/20 09:28:25;;;;;;;9.15;4.05;;;8.80;90.60;;;;;;5090463;28;20057;-70
2020/12/20 09:31:16;;;;;;;17.60;3.40;;;8.80;90.60;;;;;;5082574;28;20039;-70
2020/12/20 09:33:49;;;;;;;11.32;3.80;;;8.90;90.60;;;;;;5087994;28;20106;-70
2020/12/20 09:36:22;;;;;;;16.73;3.95;;;8.90;90.60;;;;;;5087543;28;20478;-70
2020/12/20 09:38:55;;;;;;;10.20;4.18;;;8.90;90.60;;;;;;5084711;28;20427;-70
2020/12/20 09:41:25;;;;;;;15.85;4.07;;;8.90;90.50;;;;;;5086085;28;20092;-70
2020/12/20 09:43:52;;;;;;;17.05;4.05;;;8.90;90.50;;;;;;5089911;28;20028;-70
2020/12/20 09:46:38;;;;;;;10.90;3.80;;;9.00;90.50;;;;;;5082926;28;20489;-69
2020/12/20 09:49:05;;;;;;;13.60;4.10;;;9.00;90.50;;;;;;5091197;28;20063;-69
2020/12/20 09:51:34;;;;;;;16.55;5.00;;;9.00;90.50;;;;;;5087226;28;20032;-69
2020/12/20 09:54:00;;;;;;;7.75;3.63;;;9.00;90.40;;;;;;5088964;28;20036;-69
2020/12/20 09:56:45;;;;;;;12.77;3.70;;;9.00;90.50;;;;;;5088331;28;20071;-69
2020/12/20 09:59:11;;;;;;;12.85;3.92;;;9.00;90.50;;;;;;5090821;28;20067;-69
2020/12/20 10:01:37;;;;;;;12.80;4.00;;;9.00;90.50;;;;;;5090689;28;20489;-69
2020/12/20 10:04:02;;;;;;;14.50;4.65;;;9.10;90.50;;;;;;5087595;28;20050;-69
2020/12/20 10:06:28;;;;;;;10.18;3.95;;;9.10;90.50;;;;;;5088297;28;20135;-69
2020/12/20 10:08:54;;;;;;;12.48;4.15;;;9.10;90.50;;;;;;5087709;28;20059;-69
2020/12/20 10:11:21;;;;;;;7.90;4.00;;;9.20;90.40;;;;;;5089336;28;20036;-69
2020/12/20 10:13:46;;;;;;;15.02;3.97;;;9.20;90.40;;;;;;5085573;28;20044;-69
2020/12/20 10:16:18;;;;;;;9.10;4.90;;;9.20;90.30;;;;;;5089810;28;20186;-70
2020/12/20 10:18:45;;;;;;;11.05;3.80;;;9.20;90.40;;;;;;5088404;28;20086;-69
2020/12/20 10:21:14;;;;;;;14.15;4.32;;;9.30;90.30;;;;;;5086742;28;20040;-69
2020/12/20 10:23:40;;;;;;;10.27;3.63;;;9.30;90.30;;;;;;5088890;28;20054;-69
2020/12/20 10:26:26;;;;;;;12.70;4.40;;;9.30;90.20;;;;;;5068488;28;20558;-69
2020/12/20 10:28:51;;;;;;;13.70;4.05;;;9.40;90.10;;;;;;5090648;28;20036;-69
2020/12/20 10:31:18;;;;;;;11.10;3.88;;;9.40;90.10;;;;;;5086565;28;20051;-69
2020/12/20 10:33:44;;;;;;;16.10;4.40;;;9.40;90.00;;;;;;5091240;28;20044;-69
2020/12/20 10:36:10;;;;;;;11.00;3.97;;;9.50;90.00;;;;;;5088598;28;20474;-69
2020/12/20 10:38:35;;;;;;;12.07;4.28;;;9.50;89.90;;;;;;5091246;28;20508;-69
2020/12/20 10:41:01;;;;;;;10.35;3.58;;;9.50;89.70;;;;;;5086038;28;20048;-69
2020/12/20 10:43:26;;;;;;;17.33;4.60;;;9.50;89.80;;;;;;5087273;28;20036;-69
2020/12/20 10:45:52;;;;;;;16.85;4.85;;;9.50;89.70;;;;;;5087591;28;20040;-69
2020/12/20 10:48:18;;;;;;;11.88;4.90;;;9.50;89.70;;;;;;5088892;28;20119;-69
2020/12/20 10:50:44;;;;;;;14.90;4.80;;;9.60;89.60;;;;;;5089895;28;20048;-69
2020/12/20 10:53:09;;;;;;;17.90;5.63;;;9.60;89.70;;;;;;5090827;28;20039;-69
2020/12/20 10:55:56;;;;;;;11.60;5.25;;;9.60;89.20;;;;;;5088748;28;20036;-69
2020/12/20 10:58:22;;;;;;;11.15;4.82;;;9.60;89.50;;;;;;5087978;28;20036;-69
2020/12/20 11:00:47;;;;;;;11.73;5.10;;;9.60;89.20;;;;;;5087853;28;20048;-69
2020/12/20 11:03:33;;;;;;;16.48;6.88;;;9.60;89.20;;;;;;5073231;28;20138;-69
2020/12/20 11:06:24;;;;;;;16.45;5.82;;;9.70;89.20;;;;;;5086223;28;20056;-69
2020/12/20 11:09:09;;;;;;;14.70;6.60;;;9.70;89.10;;;;;;5084282;28;20091;-69
2020/12/20 11:11:35;;;;;;;20.00;6.65;;;9.70;88.60;;;;;;5083795;28;20067;-69
2020/12/20 11:14:22;;;;;;;15.70;6.00;;;9.70;88.50;;;;;;5090336;28;20040;-69
2020/12/20 11:16:51;;;;;;;15.45;6.28;;;9.70;88.80;;;;;;5098858;28;20036;-69
2020/12/20 11:19:37;;;;;;;17.80;6.57;;;9.80;88.70;;;;;;5088338;28;20136;-69
2020/12/20 11:22:03;;;;;;;21.98;6.55;;;9.70;88.50;;;;;;5086804;28;20070;-69
2020/12/20 11:24:28;;;;;;;21.13;6.55;;;9.80;88.40;;;;;;5092609;28;20115;-69
2020/12/20 11:27:14;;;;;;;17.73;6.53;;;9.80;88.60;;;;;;5085485;28;20185;-69
2020/12/20 11:29:39;;;;;;;15.00;6.35;;;9.80;88.30;;;;;;5088690;28;20115;-69
2020/12/20 11:32:25;;;;;;;15.82;6.65;;;9.80;88.40;;;;;;5088290;28;20036;-69
2020/12/20 11:34:51;;;;;;;15.90;6.35;;;9.90;87.80;;;;;;5088045;28;20646;-69
2020/12/20 11:37:36;;;;;;;24.00;6.57;;;9.90;87.80;;;;;;5088209;28;20397;-69
2020/12/20 11:40:02;;;;;;;21.00;6.43;;;9.90;87.60;;;;;;5091114;28;20043;-69
2020/12/20 11:42:48;;;;;;;20.67;7.43;;;9.90;87.70;;;;;;5091846;28;20134;-69
2020/12/20 11:45:14;;;;;;;23.42;6.70;;;10.00;87.40;;;;;;5087835;28;20244;-69
2020/12/20 11:47:41;;;;;;;18.45;7.03;;;10.00;87.50;;;;;;5092444;28;20051;-69
2020/12/20 11:50:08;;;;;;;16.10;6.63;;;10.10;87.80;;;;;;5088592;28;20048;-69
2020/12/20 11:52:54;;;;;;;15.75;6.47;;;10.20;87.40;;;;;;5094223;28;20093;-69
2020/12/20 11:55:19;;;;;;;18.13;6.07;;;10.30;86.30;;;;;;5083693;28;20040;-69
2020/12/20 11:57:45;;;;;;;26.05;6.78;;;10.50;86.30;;;;;;5091231;28;20055;-69
2020/12/20 12:00:11;;;;;;;16.95;5.72;;;10.50;86.10;;;;;;5089453;28;20050;-69
2020/12/20 12:02:36;;;;;;;14.80;5.68;;;10.70;85.30;;;;;;5092631;28;20036;-69
2020/12/20 12:05:22;;;;;;;16.23;5.68;;;10.70;84.90;;;;;;5091406;28;20055;-69
2020/12/20 12:07:47;;;;;;;15.57;5.53;;;10.70;85.10;;;;;;5090327;28;20039;-69
2020/12/20 12:10:13;;;;;;;20.00;5.22;;;10.70;84.90;;;;;;5090801;28;20436;-69
2020/12/20 12:12:39;;;;;;;17.38;5.82;;;10.80;84.90;;;;;;5090609;28;20051;-69
2020/12/20 12:15:05;;;;;;;21.27;5.35;;;10.80;84.10;;;;;;5089471;28;20039;-70
2020/12/20 12:17:50;;;;;;;22.02;5.50;;;10.70;84.70;;;;;;5089852;28;20032;-69
2020/12/20 12:20:16;;;;;;;14.55;4.97;;;10.70;84.70;;;;;;5091755;28;20042;-69
2020/12/20 12:22:41;;;;;;;17.65;6.18;;;10.60;84.40;;;;;;5092958;28;20103;-69
2020/12/20 12:25:07;;;;;;;15.48;5.60;;;10.60;84.60;;;;;;5091787;28;20050;-69
2020/12/20 12:27:33;;;;;;;20.83;5.30;;;10.50;84.40;;;;;;5090998;28;20039;-69
2020/12/20 12:29:59;;;;;;;17.98;5.60;;;10.50;84.80;;;;;;5088625;28;20110;-69
2020/12/20 12:32:24;;;;;;;17.23;6.57;;;10.40;84.40;;;;;;5090729;28;20040;-69
2020/12/20 12:34:50;;;;;;;19.25;5.70;;;10.40;84.50;;;;;;5089849;28;20482;-69
2020/12/20 12:37:36;;;;;;;19.48;5.30;;;10.40;84.20;;;;;;5086673;28;20275;-69
2020/12/20 12:40:03;;;;;;;17.13;4.78;;;10.40;84.20;;;;;;5087932;28;20486;-69
2020/12/20 12:42:49;;;;;;;20.33;5.45;;;10.40;84.40;;;;;;5092422;28;20071;-69
2020/12/20 12:45:17;;;;;;;17.63;4.88;;;10.30;84.10;;;;;;5082493;28;20082;-69
2020/12/20 12:47:42;;;;;;;20.52;5.13;;;10.30;84.10;;;;;;5090414;28;20043;-69
2020/12/20 12:50:09;;;;;;;17.58;5.05;;;10.30;84.50;;;;;;5090434;28;20047;-69
2020/12/20 12:52:35;;;;;;;17.50;4.97;;;10.30;84.40;;;;;;5089204;28;20478;-69
2020/12/20 12:55:01;;;;;;;18.08;5.40;;;10.40;85.00;;;;;;5091734;28;20097;-69
2020/12/20 12:57:27;;;;;;;15.93;4.95;;;10.40;84.10;;;;;;5090372;28;20040;-69
2020/12/20 12:59:53;;;;;;;18.42;5.30;;;10.50;83.20;;;;;;5090108;28;20444;-69
2020/12/20 13:02:38;;;;;;;16.40;4.43;;;10.50;83.20;;;;;;5087687;28;20082;-69
2020/12/20 13:05:04;;;;;;;14.68;3.97;;;10.50;82.30;;;;;;5088922;28;20449;-69
2020/12/20 13:07:29;;;;;;;12.18;4.05;;;10.50;82.50;;;;;;5089777;28;20032;-69
2020/12/20 13:10:15;;;;;;;14.75;3.72;;;10.50;83.00;;;;;;5086177;28;20079;-70
2020/12/20 13:12:41;;;;;;;20.40;4.93;;;10.40;82.90;;;;;;5090598;28;21646;-70
2020/12/20 13:15:07;;;;;;;14.05;4.25;;;10.40;82.90;;;;;;5089759;28;20056;-70